sensor_id;sensor_type;location;lat;lon;timestamp;pressure;altitude;pressure_sealevel;temperature
51561;BMP280;37654;51.262;17.058;2022-12-07T00:01:31;99104.94;;;2.01
51561;BMP280;37654;51.262;17.058;2022-12-07T00:03:59;99107.50;;;2.07
51561;BMP280;37654;51.262;17.058;2022-12-07T00:06:38;99110.06;;;2.04
51561;BMP280;37654;51.262;17.058;2022-12-07T00:09:04;99106.66;;;2.08
51561;BMP280;37654;51.262;17.058;2022-12-07T00:11:30;99100.69;;;2.03
51561;BMP280;37654;51.262;17.058;2022-12-07T00:13:58;99101.53;;;2.08
51561;BMP280;37654;51.262;17.058;2022-12-07T00:16:27;99085.34;;;2.09
51561;BMP280;37654;51.262;17.058;2022-12-07T00:18:54;99085.38;;;2.07
51561;BMP280;37654;51.262;17.058;2022-12-07T00:21:24;99087.91;;;2.03
51561;BMP280;37654;51.262;17.058;2022-12-07T00:23:51;99085.34;;;2.00
51561;BMP280;37654;51.262;17.058;2022-12-07T00:26:20;99087.03;;;1.98
51561;BMP280;37654;51.262;17.058;2022-12-07T00:28:47;99084.50;;;1.98
51561;BMP280;37654;51.262;17.058;2022-12-07T00:31:14;99081.97;;;1.99
51561;BMP280;37654;51.262;17.058;2022-12-07T00:33:40;99081.94;;;1.96
51561;BMP280;37654;51.262;17.058;2022-12-07T00:36:08;99076.84;;;1.95
51561;BMP280;37654;51.262;17.058;2022-12-07T00:38:35;99081.09;;;1.93
51561;BMP280;37654;51.262;17.058;2022-12-07T00:41:03;99087.03;;;1.98
51561;BMP280;37654;51.262;17.058;2022-12-07T00:43:30;99087.06;;;1.95
51561;BMP280;37654;51.262;17.058;2022-12-07T00:45:56;99082.78;;;1.97
51561;BMP280;37654;51.262;17.058;2022-12-07T00:48:22;99072.59;;;2.06
51561;BMP280;37654;51.262;17.058;2022-12-07T00:50:48;99076.00;;;2.06
51561;BMP280;37654;51.262;17.058;2022-12-07T00:53:14;99079.41;;;2.08
51561;BMP280;37654;51.262;17.058;2022-12-07T00:55:39;99087.91;;;2.03
51561;BMP280;37654;51.262;17.058;2022-12-07T00:58:05;99074.28;;;2.01
51561;BMP280;37654;51.262;17.058;2022-12-07T01:00:30;99081.09;;;1.99
51561;BMP280;37654;51.262;17.058;2022-12-07T01:02:56;99087.06;;;2.02
51561;BMP280;37654;51.262;17.058;2022-12-07T01:05:22;99086.22;;;1.91
51561;BMP280;37654;51.262;17.058;2022-12-07T01:07:47;99088.75;;;1.93
51561;BMP280;37654;51.262;17.058;2022-12-07T01:10:13;99081.94;;;1.92
51561;BMP280;37654;51.262;17.058;2022-12-07T01:12:39;99088.75;;;1.94
51561;BMP280;37654;51.262;17.058;2022-12-07T01:15:06;99083.63;;;1.94
51561;BMP280;37654;51.262;17.058;2022-12-07T01:17:31;99086.19;;;1.93
51561;BMP280;37654;51.262;17.058;2022-12-07T01:19:57;99079.38;;;1.89
51561;BMP280;37654;51.262;17.058;2022-12-07T01:22:22;99081.06;;;1.90
51561;BMP280;37654;51.262;17.058;2022-12-07T01:24:48;99057.22;;;1.91
51561;BMP280;37654;51.262;17.058;2022-12-07T01:27:13;99071.72;;;1.86
51561;BMP280;37654;51.262;17.058;2022-12-07T01:29:39;99071.72;;;1.86
51561;BMP280;37654;51.262;17.058;2022-12-07T01:32:05;99077.69;;;1.94
51561;BMP280;37654;51.262;17.058;2022-12-07T01:34:30;99076.00;;;1.91
51561;BMP280;37654;51.262;17.058;2022-12-07T01:36:56;99074.25;;;1.88
51561;BMP280;37654;51.262;17.058;2022-12-07T01:39:22;99079.38;;;1.89
51561;BMP280;37654;51.262;17.058;2022-12-07T01:41:48;99076.81;;;1.90
51561;BMP280;37654;51.262;17.058;2022-12-07T01:44:15;99074.28;;;1.95
51561;BMP280;37654;51.262;17.058;2022-12-07T01:46:45;99083.63;;;1.86
51561;BMP280;37654;51.262;17.058;2022-12-07T01:49:31;99074.25;;;1.83
51561;BMP280;37654;51.262;17.058;2022-12-07T01:52:10;99080.22;;;1.85
51561;BMP280;37654;51.262;17.058;2022-12-07T01:54:38;99078.53;;;1.90
51561;BMP280;37654;51.262;17.058;2022-12-07T01:57:04;99075.13;;;1.88
51561;BMP280;37654;51.262;17.058;2022-12-07T01:59:31;99075.97;;;1.90
51561;BMP280;37654;51.262;17.058;2022-12-07T02:01:57;99072.56;;;1.82
51561;BMP280;37654;51.262;17.058;2022-12-07T02:04:22;99071.72;;;1.82
51561;BMP280;37654;51.262;17.058;2022-12-07T02:06:48;99079.38;;;1.86
51561;BMP280;37654;51.262;17.058;2022-12-07T02:09:14;99072.56;;;1.87
51561;BMP280;37654;51.262;17.058;2022-12-07T02:11:40;99074.25;;;1.82
51561;BMP280;37654;51.262;17.058;2022-12-07T02:14:06;99078.53;;;1.86
51561;BMP280;37654;51.262;17.058;2022-12-07T02:24:53;99056.41;;;1.96
51561;BMP280;37654;51.262;17.058;2022-12-07T02:27:37;99062.34;;;1.97
51561;BMP280;37654;51.262;17.058;2022-12-07T02:30:28;99064.03;;;1.83
51561;BMP280;37654;51.262;17.058;2022-12-07T02:33:03;99074.25;;;1.79
51561;BMP280;37654;51.262;17.058;2022-12-07T02:35:48;99070.00;;;1.81
51561;BMP280;37654;51.262;17.058;2022-12-07T02:38:20;99073.41;;;1.78
51561;BMP280;37654;51.262;17.058;2022-12-07T02:41:03;99069.97;;;1.76
51561;BMP280;37654;51.262;17.058;2022-12-07T02:43:41;99063.19;;;1.81
51561;BMP280;37654;51.262;17.058;2022-12-07T02:46:21;99063.22;;;1.84
51561;BMP280;37654;51.262;17.058;2022-12-07T02:48:47;99059.78;;;1.79
51561;BMP280;37654;51.262;17.058;2022-12-07T02:51:13;99063.19;;;1.78
51561;BMP280;37654;51.262;17.058;2022-12-07T02:53:41;99071.69;;;1.79
51561;BMP280;37654;51.262;17.058;2022-12-07T03:01:40;99054.69;;;1.82
51561;BMP280;37654;51.262;17.058;2022-12-07T03:04:49;99058.06;;;1.83
51561;BMP280;37654;51.262;17.058;2022-12-07T03:07:15;99059.78;;;1.75
51561;BMP280;37654;51.262;17.058;2022-12-07T03:09:53;99063.19;;;1.83
51561;BMP280;37654;51.262;17.058;2022-12-07T03:12:36;99054.66;;;1.84
51561;BMP280;37654;51.262;17.058;2022-12-07T03:15:14;99066.59;;;1.77
51561;BMP280;37654;51.262;17.058;2022-12-07T03:17:44;99065.72;;;1.77
51561;BMP280;37654;51.262;17.058;2022-12-07T03:20:14;99064.88;;;1.76
51561;BMP280;37654;51.262;17.058;2022-12-07T03:22:42;99062.28;;;1.66
51561;BMP280;37654;51.262;17.058;2022-12-07T03:25:10;99060.56;;;1.62
51561;BMP280;37654;51.262;17.058;2022-12-07T03:30:29;99058.06;;;1.68
51561;BMP280;37654;51.262;17.058;2022-12-07T03:33:04;99057.19;;;1.69
51561;BMP280;37654;51.262;17.058;2022-12-07T03:35:39;99047.84;;;1.66
51561;BMP280;37654;51.262;17.058;2022-12-07T03:38:27;99046.97;;;1.64
51561;BMP280;37654;51.262;17.058;2022-12-07T03:43:24;99045.28;;;1.65
51561;BMP280;37654;51.262;17.058;2022-12-07T03:51:37;99035.06;;;1.65
51561;BMP280;37654;51.262;17.058;2022-12-07T03:54:09;99041.84;;;1.62
51561;BMP280;37654;51.262;17.058;2022-12-07T03:56:36;99034.22;;;1.63
51561;BMP280;37654;51.262;17.058;2022-12-07T03:59:02;99041.00;;;1.63
51561;BMP280;37654;51.262;17.058;2022-12-07T04:01:27;99029.94;;;1.58
51561;BMP280;37654;51.262;17.058;2022-12-07T04:03:53;99028.22;;;1.51
51561;BMP280;37654;51.262;17.058;2022-12-07T04:06:18;99038.41;;;1.46
51561;BMP280;37654;51.262;17.058;2022-12-07T04:08:44;99029.03;;;1.44
51561;BMP280;37654;51.262;17.058;2022-12-07T04:11:10;99038.44;;;1.49
51561;BMP280;37654;51.262;17.058;2022-12-07T04:13:35;99043.50;;;1.45
51561;BMP280;37654;51.262;17.058;2022-12-07T04:16:20;99039.25;;;1.42
51561;BMP280;37654;51.262;17.058;2022-12-07T04:18:46;99035.81;;;1.37
51561;BMP280;37654;51.262;17.058;2022-12-07T04:21:11;99050.28;;;1.28
51561;BMP280;37654;51.262;17.058;2022-12-07T04:23:37;99033.22;;;1.27
51561;BMP280;37654;51.262;17.058;2022-12-07T04:26:02;99041.75;;;1.29
51561;BMP280;37654;51.262;17.058;2022-12-07T04:28:27;99042.63;;;1.37
51561;BMP280;37654;51.262;17.058;2022-12-07T04:30:53;99036.69;;;1.32
51561;BMP280;37654;51.262;17.058;2022-12-07T04:33:18;99043.47;;;1.32
51561;BMP280;37654;51.262;17.058;2022-12-07T04:35:44;99042.59;;;1.30
51561;BMP280;37654;51.262;17.058;2022-12-07T04:38:09;99038.34;;;1.30
51561;BMP280;37654;51.262;17.058;2022-12-07T04:40:34;99032.38;;;1.27
51561;BMP280;37654;51.262;17.058;2022-12-07T04:43:00;99034.97;;;1.28
51561;BMP280;37654;51.262;17.058;2022-12-07T04:45:25;99034.97;;;1.31
51561;BMP280;37654;51.262;17.058;2022-12-07T04:47:51;99029.84;;;1.30
51561;BMP280;37654;51.262;17.058;2022-12-07T04:50:16;99032.41;;;1.33
51561;BMP280;37654;51.262;17.058;2022-12-07T04:52:41;99029.84;;;1.27
51561;BMP280;37654;51.262;17.058;2022-12-07T04:55:07;99030.72;;;1.32
51561;BMP280;37654;51.262;17.058;2022-12-07T04:57:32;99029.88;;;1.37
51561;BMP280;37654;51.262;17.058;2022-12-07T04:59:58;99028.16;;;1.33
51561;BMP280;37654;51.262;17.058;2022-12-07T05:02:23;99033.28;;;1.36
51561;BMP280;37654;51.262;17.058;2022-12-07T05:04:48;99034.13;;;1.32
51561;BMP280;37654;51.262;17.058;2022-12-07T05:07:14;99035.81;;;1.29
51561;BMP280;37654;51.262;17.058;2022-12-07T05:09:39;99030.72;;;1.32
51561;BMP280;37654;51.262;17.058;2022-12-07T05:12:05;99029.88;;;1.31
51561;BMP280;37654;51.262;17.058;2022-12-07T05:14:30;99023.06;;;1.36
51561;BMP280;37654;51.262;17.058;2022-12-07T05:16:55;99028.19;;;1.36
51561;BMP280;37654;51.262;17.058;2022-12-07T05:19:21;99029.00;;;1.38
51561;BMP280;37654;51.262;17.058;2022-12-07T05:21:47;99027.34;;;1.40
51561;BMP280;37654;51.262;17.058;2022-12-07T05:24:14;99025.63;;;1.37
51561;BMP280;37654;51.262;17.058;2022-12-07T05:26:39;99029.03;;;1.44
51561;BMP280;37654;51.262;17.058;2022-12-07T05:29:05;99024.81;;;1.49
51561;BMP280;37654;51.262;17.058;2022-12-07T05:31:31;99018.84;;;1.51
51561;BMP280;37654;51.262;17.058;2022-12-07T05:33:57;99020.59;;;1.57
51561;BMP280;37654;51.262;17.058;2022-12-07T05:36:22;99024.81;;;1.55
51561;BMP280;37654;51.262;17.058;2022-12-07T05:38:48;99028.25;;;1.60
51561;BMP280;37654;51.262;17.058;2022-12-07T05:41:17;99027.41;;;1.56
51561;BMP280;37654;51.262;17.058;2022-12-07T05:43:56;99024.81;;;1.55
51561;BMP280;37654;51.262;17.058;2022-12-07T05:46:22;99028.25;;;1.57
51561;BMP280;37654;51.262;17.058;2022-12-07T05:48:47;99023.13;;;1.58
51561;BMP280;37654;51.262;17.058;2022-12-07T05:51:12;99024.84;;;1.61
51561;BMP280;37654;51.262;17.058;2022-12-07T05:53:38;99026.53;;;1.59
51561;BMP280;37654;51.262;17.058;2022-12-07T05:56:03;99033.34;;;1.61
51561;BMP280;37654;51.262;17.058;2022-12-07T05:58:29;99026.53;;;1.59
51561;BMP280;37654;51.262;17.058;2022-12-07T06:01:08;99030.81;;;1.60
51561;BMP280;37654;51.262;17.058;2022-12-07T06:03:34;99026.53;;;1.62
51561;BMP280;37654;51.262;17.058;2022-12-07T06:05:59;99024.00;;;1.64
51561;BMP280;37654;51.262;17.058;2022-12-07T06:08:24;99026.53;;;1.66
51561;BMP280;37654;51.262;17.058;2022-12-07T06:10:50;99012.06;;;1.65
51561;BMP280;37654;51.262;17.058;2022-12-07T06:13:35;99011.25;;;1.70
51561;BMP280;37654;51.262;17.058;2022-12-07T06:16:01;99022.31;;;1.72
51561;BMP280;37654;51.262;17.058;2022-12-07T06:18:26;99010.38;;;1.71
51561;BMP280;37654;51.262;17.058;2022-12-07T06:20:51;99020.63;;;1.74
51561;BMP280;37654;51.262;17.058;2022-12-07T06:23:17;99021.44;;;1.73
51561;BMP280;37654;51.262;17.058;2022-12-07T06:25:45;99024.00;;;1.72
51561;BMP280;37654;51.262;17.058;2022-12-07T06:28:10;99014.63;;;1.69
51561;BMP280;37654;51.262;17.058;2022-12-07T06:30:36;99016.34;;;1.72
51561;BMP280;37654;51.262;17.058;2022-12-07T06:33:01;99014.63;;;1.69
51561;BMP280;37654;51.262;17.058;2022-12-07T06:35:27;99017.19;;;1.75
51561;BMP280;37654;51.262;17.058;2022-12-07T06:37:52;99017.19;;;1.77
51561;BMP280;37654;51.262;17.058;2022-12-07T06:40:17;99018.91;;;1.75
51561;BMP280;37654;51.262;17.058;2022-12-07T06:42:43;99011.22;;;1.73
51561;BMP280;37654;51.262;17.058;2022-12-07T06:45:09;99026.56;;;1.69
51561;BMP280;37654;51.262;17.058;2022-12-07T06:47:34;99018.91;;;1.72
51561;BMP280;37654;51.262;17.058;2022-12-07T06:49:59;99026.56;;;1.73
51561;BMP280;37654;51.262;17.058;2022-12-07T06:52:25;99034.22;;;1.73
51561;BMP280;37654;51.262;17.058;2022-12-07T06:54:50;99016.34;;;1.73
51561;BMP280;37654;51.262;17.058;2022-12-07T06:57:16;99030.81;;;1.68
51561;BMP280;37654;51.262;17.058;2022-12-07T06:59:41;99012.09;;;1.71
51561;BMP280;37654;51.262;17.058;2022-12-07T07:02:08;99019.75;;;1.72
51561;BMP280;37654;51.262;17.058;2022-12-07T07:04:33;99007.81;;;1.68
51561;BMP280;37654;51.262;17.058;2022-12-07T07:06:59;99018.03;;;1.68
51561;BMP280;37654;51.262;17.058;2022-12-07T07:09:24;99023.97;;;1.66
51561;BMP280;37654;51.262;17.058;2022-12-07T07:11:49;99019.75;;;1.63
51561;BMP280;37654;51.262;17.058;2022-12-07T07:14:15;99029.13;;;1.67
51561;BMP280;37654;51.262;17.058;2022-12-07T07:16:44;99024.84;;;1.68
51561;BMP280;37654;51.262;17.058;2022-12-07T07:19:10;99026.56;;;1.64
51561;BMP280;37654;51.262;17.058;2022-12-07T07:21:36;99018.88;;;1.64
51561;BMP280;37654;51.262;17.058;2022-12-07T07:24:02;99004.44;;;1.63
51561;BMP280;37654;51.262;17.058;2022-12-07T07:26:27;99028.25;;;1.65
51561;BMP280;37654;51.262;17.058;2022-12-07T07:28:52;99029.13;;;1.67
51561;BMP280;37654;51.262;17.058;2022-12-07T07:31:18;99016.34;;;1.70
51561;BMP280;37654;51.262;17.058;2022-12-07T07:33:45;99026.56;;;1.67
51561;BMP280;37654;51.262;17.058;2022-12-07T07:36:11;99012.97;;;1.74
51561;BMP280;37654;51.262;17.058;2022-12-07T07:38:36;99024.88;;;1.75
51561;BMP280;37654;51.262;17.058;2022-12-07T07:41:02;99023.16;;;1.80
51561;BMP280;37654;51.262;17.058;2022-12-07T07:43:27;99029.13;;;1.82
51561;BMP280;37654;51.262;17.058;2022-12-07T07:45:52;99026.59;;;1.81
51561;BMP280;37654;51.262;17.058;2022-12-07T07:48:18;99028.25;;;1.80
51561;BMP280;37654;51.262;17.058;2022-12-07T07:50:43;99029.97;;;1.83
51561;BMP280;37654;51.262;17.058;2022-12-07T07:53:09;99019.75;;;1.75
51561;BMP280;37654;51.262;17.058;2022-12-07T07:55:34;99024.00;;;1.73
51561;BMP280;37654;51.262;17.058;2022-12-07T07:58:00;99022.31;;;1.77
51561;BMP280;37654;51.262;17.058;2022-12-07T08:00:25;99022.31;;;1.72
51561;BMP280;37654;51.262;17.058;2022-12-07T08:02:50;99037.63;;;1.72
51561;BMP280;37654;51.262;17.058;2022-12-07T08:05:16;99026.56;;;1.76
51561;BMP280;37654;51.262;17.058;2022-12-07T08:07:41;99037.63;;;1.69
51561;BMP280;37654;51.262;17.058;2022-12-07T08:10:09;99029.94;;;1.69
51561;BMP280;37654;51.262;17.058;2022-12-07T08:12:40;99021.47;;;1.81
51561;BMP280;37654;51.262;17.058;2022-12-07T08:15:27;99027.44;;;1.84
51561;BMP280;37654;51.262;17.058;2022-12-07T08:17:53;99029.16;;;1.88
51561;BMP280;37654;51.262;17.058;2022-12-07T08:20:19;99018.94;;;1.90
51561;BMP280;37654;51.262;17.058;2022-12-07T08:22:44;99025.75;;;1.89
51561;BMP280;37654;51.262;17.058;2022-12-07T08:25:10;99023.19;;;1.95
51561;BMP280;37654;51.262;17.058;2022-12-07T08:27:35;99028.28;;;2.01
51561;BMP280;37654;51.262;17.058;2022-12-07T08:30:00;99029.16;;;2.04
51561;BMP280;37654;51.262;17.058;2022-12-07T08:32:26;99024.91;;;2.03
51561;BMP280;37654;51.262;17.058;2022-12-07T08:34:52;99023.22;;;2.13
51561;BMP280;37654;51.262;17.058;2022-12-07T08:37:17;99022.34;;;2.18
51561;BMP280;37654;51.262;17.058;2022-12-07T08:39:43;99020.63;;;2.26
51561;BMP280;37654;51.262;17.058;2022-12-07T08:42:08;99019.78;;;2.46
51561;BMP280;37654;51.262;17.058;2022-12-07T08:44:33;99014.66;;;2.59
51561;BMP280;37654;51.262;17.058;2022-12-07T08:47:03;99004.34;;;2.84
51561;BMP280;37654;51.262;17.058;2022-12-07T08:49:37;99004.25;;;3.08
51561;BMP280;37654;51.262;17.058;2022-12-07T08:52:05;99000.00;;;3.05
51561;BMP280;37654;51.262;17.058;2022-12-07T08:54:33;98998.25;;;3.15
51561;BMP280;37654;51.262;17.058;2022-12-07T08:57:01;99001.66;;;3.20
51561;BMP280;37654;51.262;17.058;2022-12-07T08:59:26;98994.88;;;3.10
51561;BMP280;37654;51.262;17.058;2022-12-07T09:01:52;99000.84;;;3.12
51561;BMP280;37654;51.262;17.058;2022-12-07T09:04:18;98997.41;;;3.13
51561;BMP280;37654;51.262;17.058;2022-12-07T09:06:43;98995.69;;;3.15
51561;BMP280;37654;51.262;17.058;2022-12-07T09:09:10;98995.72;;;3.09
51561;BMP280;37654;51.262;17.058;2022-12-07T09:11:36;98987.19;;;3.16
51561;BMP280;37654;51.262;17.058;2022-12-07T09:14:01;98988.06;;;3.12
51561;BMP280;37654;51.262;17.058;2022-12-07T09:16:27;98988.06;;;3.09
51561;BMP280;37654;51.262;17.058;2022-12-07T09:18:53;98982.06;;;3.13
51561;BMP280;37654;51.262;17.058;2022-12-07T09:21:19;98982.00;;;3.22
51561;BMP280;37654;51.262;17.058;2022-12-07T09:23:44;98982.06;;;3.13
51561;BMP280;37654;51.262;17.058;2022-12-07T09:26:10;98984.59;;;3.14
51561;BMP280;37654;51.262;17.058;2022-12-07T09:28:36;98982.00;;;3.19
51561;BMP280;37654;51.262;17.058;2022-12-07T09:31:02;98986.28;;;3.23
51561;BMP280;37654;51.262;17.058;2022-12-07T09:33:28;98983.72;;;3.23
51561;BMP280;37654;51.262;17.058;2022-12-07T09:35:53;98973.50;;;3.17
51561;BMP280;37654;51.262;17.058;2022-12-07T09:38:19;98964.13;;;3.14
51561;BMP280;37654;51.262;17.058;2022-12-07T09:40:45;98958.13;;;3.18
51561;BMP280;37654;51.262;17.058;2022-12-07T09:43:30;98947.88;;;3.24
51561;BMP280;37654;51.262;17.058;2022-12-07T09:45:56;98945.31;;;3.24
51561;BMP280;37654;51.262;17.058;2022-12-07T09:48:36;98948.78;;;3.11
51561;BMP280;37654;51.262;17.058;2022-12-07T09:51:17;98947.03;;;3.24
51561;BMP280;37654;51.262;17.058;2022-12-07T09:53:44;98941.06;;;3.20
51561;BMP280;37654;51.262;17.058;2022-12-07T09:56:13;98931.66;;;3.25
51561;BMP280;37654;51.262;17.058;2022-12-07T09:58:39;98930.78;;;3.33
51561;BMP280;37654;51.262;17.058;2022-12-07T10:03:35;98930.66;;;3.48
51561;BMP280;37654;51.262;17.058;2022-12-07T10:06:01;98922.97;;;3.48
51561;BMP280;37654;51.262;17.058;2022-12-07T10:08:27;98924.75;;;3.39
51561;BMP280;37654;51.262;17.058;2022-12-07T10:10:54;98921.31;;;3.41
51561;BMP280;37654;51.262;17.058;2022-12-07T10:13:41;98916.22;;;3.38
51561;BMP280;37654;51.262;17.058;2022-12-07T10:16:30;98917.09;;;3.37
51561;BMP280;37654;51.262;17.058;2022-12-07T10:18:57;98911.16;;;3.29
51561;BMP280;37654;51.262;17.058;2022-12-07T10:21:25;98907.75;;;3.25
51561;BMP280;37654;51.262;17.058;2022-12-07T10:26:50;98901.00;;;3.13
51561;BMP280;37654;51.262;17.058;2022-12-07T10:29:28;98894.19;;;3.08
51561;BMP280;37654;51.262;17.058;2022-12-07T10:32:00;98902.81;;;3.01
51561;BMP280;37654;51.262;17.058;2022-12-07T10:34:28;98904.47;;;3.00
51561;BMP280;37654;51.262;17.058;2022-12-07T10:42:18;98900.28;;;2.92
51561;BMP280;37654;51.262;17.058;2022-12-07T10:44:44;98913.03;;;2.94
51561;BMP280;37654;51.262;17.058;2022-12-07T10:47:32;98913.03;;;2.98
51561;BMP280;37654;51.262;17.058;2022-12-07T10:50:27;98913.84;;;3.03
51561;BMP280;37654;51.262;17.058;2022-12-07T11:04:14;98898.59;;;2.88
51561;BMP280;37654;51.262;17.058;2022-12-07T11:09:41;98906.25;;;2.88
51561;BMP280;37654;51.262;17.058;2022-12-07T11:12:23;98895.19;;;2.86
51561;BMP280;37654;51.262;17.058;2022-12-07T11:14:58;98887.50;;;2.88
51561;BMP280;37654;51.262;17.058;2022-12-07T11:20:12;98874.72;;;2.86
51561;BMP280;37654;51.262;17.058;2022-12-07T11:22:56;98873.81;;;2.96
51561;BMP280;37654;51.262;17.058;2022-12-07T11:25:48;98869.53;;;3.01
51561;BMP280;37654;51.262;17.058;2022-12-07T11:28:23;98874.66;;;2.98
51561;BMP280;37654;51.262;17.058;2022-12-07T11:33:37;98869.56;;;2.98
51561;BMP280;37654;51.262;17.058;2022-12-07T11:36:24;98867.84;;;2.99
51561;BMP280;37654;51.262;17.058;2022-12-07T11:38:59;98876.38;;;2.96
51561;BMP280;37654;51.262;17.058;2022-12-07T11:41:52;98865.28;;;2.99
51561;BMP280;37654;51.262;17.058;2022-12-07T11:44:31;98860.16;;;2.99
51561;BMP280;37654;51.262;17.058;2022-12-07T11:47:05;98866.13;;;2.99
51561;BMP280;37654;51.262;17.058;2022-12-07T11:54:50;98858.44;;;3.00
51561;BMP280;37654;51.262;17.058;2022-12-07T11:57:33;98864.44;;;2.98
51561;BMP280;37654;51.262;17.058;2022-12-07T12:00:04;98860.16;;;3.01
51561;BMP280;37654;51.262;17.058;2022-12-07T12:02:39;98854.19;;;2.98
51561;BMP280;37654;51.262;17.058;2022-12-07T12:07:39;98858.41;;;3.03
51561;BMP280;37654;51.262;17.058;2022-12-07T12:10:15;98847.31;;;3.04
51561;BMP280;37654;51.262;17.058;2022-12-07T12:20:46;98868.47;;;3.28
51561;BMP280;37654;51.262;17.058;2022-12-07T12:23:33;98863.34;;;3.33
51561;BMP280;37654;51.262;17.058;2022-12-07T12:26:05;98858.19;;;3.37
51561;BMP280;37654;51.262;17.058;2022-12-07T12:28:39;98853.97;;;3.33
51561;BMP280;37654;51.262;17.058;2022-12-07T12:31:12;98851.41;;;3.30
51561;BMP280;37654;51.262;17.058;2022-12-07T12:33:43;98849.75;;;3.27
51561;BMP280;37654;51.262;17.058;2022-12-07T12:51:46;98844.13;;;3.87
51561;BMP280;37654;51.262;17.058;2022-12-07T12:54:20;98829.63;;;3.83
51561;BMP280;37654;51.262;17.058;2022-12-07T13:01:58;98834.22;;;3.46
51561;BMP280;37654;51.262;17.058;2022-12-07T13:12:57;98841.19;;;3.30
51561;BMP280;37654;51.262;17.058;2022-12-07T13:31:47;98833.75;;;2.92
51561;BMP280;37654;51.262;17.058;2022-12-07T13:36:54;98831.22;;;2.89
51561;BMP280;37654;51.262;17.058;2022-12-07T13:39:23;98833.78;;;2.86
51561;BMP280;37654;51.262;17.058;2022-12-07T13:41:54;98840.63;;;2.84
51561;BMP280;37654;51.262;17.058;2022-12-07T13:44:21;98832.97;;;2.81
51561;BMP280;37654;51.262;17.058;2022-12-07T13:46:49;98842.34;;;2.82
51561;BMP280;37654;51.262;17.058;2022-12-07T13:49:28;98840.69;;;2.77
51561;BMP280;37654;51.262;17.058;2022-12-07T13:51:54;98835.56;;;2.72
51561;BMP280;37654;51.262;17.058;2022-12-07T13:54:21;98838.16;;;2.68
51561;BMP280;37654;51.262;17.058;2022-12-07T13:56:51;98844.16;;;2.63
51561;BMP280;37654;51.262;17.058;2022-12-07T13:59:22;98834.75;;;2.62
51561;BMP280;37654;51.262;17.058;2022-12-07T14:01:50;98842.41;;;2.65
51561;BMP280;37654;51.262;17.058;2022-12-07T14:04:36;98840.72;;;2.67
51561;BMP280;37654;51.262;17.058;2022-12-07T14:07:20;98840.72;;;2.64
51561;BMP280;37654;51.262;17.058;2022-12-07T14:09:59;98837.31;;;2.62
51561;BMP280;37654;51.262;17.058;2022-12-07T14:12:27;98832.25;;;2.54
51561;BMP280;37654;51.262;17.058;2022-12-07T14:14:54;98838.19;;;2.55
51561;BMP280;37654;51.262;17.058;2022-12-07T14:17:22;98835.66;;;2.55
51561;BMP280;37654;51.262;17.058;2022-12-07T14:22:35;98849.28;;;2.54
51561;BMP280;37654;51.262;17.058;2022-12-07T14:27:33;98850.97;;;2.55
51561;BMP280;37654;51.262;17.058;2022-12-07T14:30:00;98852.72;;;2.56
51561;BMP280;37654;51.262;17.058;2022-12-07T14:32:28;98853.56;;;2.53
51561;BMP280;37654;51.262;17.058;2022-12-07T14:35:09;98853.56;;;2.53
51561;BMP280;37654;51.262;17.058;2022-12-07T14:37:36;98854.44;;;2.52
51561;BMP280;37654;51.262;17.058;2022-12-07T14:40:02;98856.16;;;2.49
51561;BMP280;37654;51.262;17.058;2022-12-07T14:42:29;98855.28;;;2.51
51561;BMP280;37654;51.262;17.058;2022-12-07T14:44:56;98864.66;;;2.52
51561;BMP280;37654;51.262;17.058;2022-12-07T14:47:23;98856.97;;;2.52
51561;BMP280;37654;51.262;17.058;2022-12-07T14:49:48;98866.34;;;2.53
51561;BMP280;37654;51.262;17.058;2022-12-07T14:52:18;98864.63;;;2.51
51561;BMP280;37654;51.262;17.058;2022-12-07T14:54:44;98865.53;;;2.45
51561;BMP280;37654;51.262;17.058;2022-12-07T14:57:10;98870.66;;;2.45
51561;BMP280;37654;51.262;17.058;2022-12-07T14:59:36;98874.06;;;2.45
51561;BMP280;37654;51.262;17.058;2022-12-07T15:02:02;98872.34;;;2.44
51561;BMP280;37654;51.262;17.058;2022-12-07T15:04:27;98869.78;;;2.45
51561;BMP280;37654;51.262;17.058;2022-12-07T15:07:01;98873.19;;;2.44
51561;BMP280;37654;51.262;17.058;2022-12-07T15:09:27;98868.94;;;2.43
51561;BMP280;37654;51.262;17.058;2022-12-07T15:11:52;98867.22;;;2.46
51561;BMP280;37654;51.262;17.058;2022-12-07T15:14:18;98873.19;;;2.45
51561;BMP280;37654;51.262;17.058;2022-12-07T15:16:43;98877.47;;;2.41
51561;BMP280;37654;51.262;17.058;2022-12-07T15:19:21;98883.44;;;2.38
51561;BMP280;37654;51.262;17.058;2022-12-07T15:21:48;98888.56;;;2.38
51561;BMP280;37654;51.262;17.058;2022-12-07T15:24:14;98880.91;;;2.35
51561;BMP280;37654;51.262;17.058;2022-12-07T15:26:40;98882.63;;;2.26
51561;BMP280;37654;51.262;17.058;2022-12-07T15:29:06;98883.47;;;2.34
51561;BMP280;37654;51.262;17.058;2022-12-07T15:31:32;98884.28;;;2.36
51561;BMP280;37654;51.262;17.058;2022-12-07T15:33:58;98881.75;;;2.34
51561;BMP280;37654;51.262;17.058;2022-12-07T15:36:26;98883.47;;;2.32
51561;BMP280;37654;51.262;17.058;2022-12-07T15:38:51;98891.13;;;2.32
51561;BMP280;37654;51.262;17.058;2022-12-07T15:41:17;98886.03;;;2.28
51561;BMP280;37654;51.262;17.058;2022-12-07T15:43:43;98883.47;;;2.26
51561;BMP280;37654;51.262;17.058;2022-12-07T15:46:22;98879.22;;;2.22
51561;BMP280;37654;51.262;17.058;2022-12-07T15:48:47;98895.41;;;2.21
51561;BMP280;37654;51.262;17.058;2022-12-07T15:51:13;98886.06;;;2.17
51561;BMP280;37654;51.262;17.058;2022-12-07T15:53:38;98890.31;;;2.18
51561;BMP280;37654;51.262;17.058;2022-12-07T15:56:07;98895.41;;;2.16
51561;BMP280;37654;51.262;17.058;2022-12-07T15:58:33;98906.50;;;2.13
51561;BMP280;37654;51.262;17.058;2022-12-07T16:00:58;98902.25;;;2.08
51561;BMP280;37654;51.262;17.058;2022-12-07T16:03:23;98897.13;;;2.05
51561;BMP280;37654;51.262;17.058;2022-12-07T16:05:50;98906.50;;;2.09
51561;BMP280;37654;51.262;17.058;2022-12-07T16:08:16;98909.91;;;2.17
51561;BMP280;37654;51.262;17.058;2022-12-07T16:10:41;98914.16;;;2.15
51561;BMP280;37654;51.262;17.058;2022-12-07T16:13:10;98915.88;;;2.13
51561;BMP280;37654;51.262;17.058;2022-12-07T16:15:42;98913.34;;;2.13
51561;BMP280;37654;51.262;17.058;2022-12-07T16:18:08;98909.06;;;2.13
51561;BMP280;37654;51.262;17.058;2022-12-07T16:20:34;98906.53;;;2.06
51561;BMP280;37654;51.262;17.058;2022-12-07T16:23:00;98911.63;;;2.00